sensor_id;sensor_type;location;lat;lon;timestamp;pressure;altitude;pressure_sealevel;temperature;humidity
36190;BME280;22232;50.914;13.858;2023-01-26T00:01:50;98445.25;;;-0.39;100.00
36190;BME280;22232;50.914;13.858;2023-01-26T00:04:18;98440.00;;;-0.39;100.00
36190;BME280;22232;50.914;13.858;2023-01-26T00:06:45;98436.25;;;-0.37;100.00
36190;BME280;22232;50.914;13.858;2023-01-26T00:09:13;98435.97;;;-0.34;100.00
36190;BME280;22232;50.914;13.858;2023-01-26T00:11:41;98433.03;;;-0.31;100.00
36190;BME280;22232;50.914;13.858;2023-01-26T00:14:09;98426.84;;;-0.30;100.00
36190;BME280;22232;50.914;13.858;2023-01-26T00:16:36;98424.06;;;-0.28;100.00
36190;BME280;22232;50.914;13.858;2023-01-26T00:19:04;98420.50;;;-0.27;100.00
36190;BME280;22232;50.914;13.858;2023-01-26T00:21:31;98423.94;;;-0.27;100.00
36190;BME280;22232;50.914;13.858;2023-01-26T00:23:59;98412.06;;;-0.31;100.00
36190;BME280;22232;50.914;13.858;2023-01-26T00:26:27;98424.13;;;-0.38;100.00
36190;BME280;22232;50.914;13.858;2023-01-26T00:28:54;98408.41;;;-0.38;100.00
36190;BME280;22232;50.914;13.858;2023-01-26T00:31:24;98409.38;;;-0.39;100.00
36190;BME280;22232;50.914;13.858;2023-01-26T00:33:53;98407.72;;;-0.40;100.00
36190;BME280;22232;50.914;13.858;2023-01-26T00:36:22;98407.72;;;-0.40;100.00
36190;BME280;22232;50.914;13.858;2023-01-26T00:38:50;98408.41;;;-0.38;100.00
36190;BME280;22232;50.914;13.858;2023-01-26T00:41:17;98407.41;;;-0.37;100.00
36190;BME280;22232;50.914;13.858;2023-01-26T00:44:03;98406.47;;;-0.36;100.00
36190;BME280;22232;50.914;13.858;2023-01-26T00:46:31;98406.31;;;-0.34;100.00
36190;BME280;22232;50.914;13.858;2023-01-26T00:48:59;98410.03;;;-0.37;100.00
36190;BME280;22232;50.914;13.858;2023-01-26T00:51:27;98405.66;;;-0.36;100.00
36190;BME280;22232;50.914;13.858;2023-01-26T00:53:55;98405.50;;;-0.35;100.00
36190;BME280;22232;50.914;13.858;2023-01-26T00:56:23;98407.97;;;-0.33;100.00
36190;BME280;22232;50.914;13.858;2023-01-26T00:58:54;98408.34;;;-0.28;100.00
36190;BME280;22232;50.914;13.858;2023-01-26T01:01:21;98410.16;;;-0.29;100.00
36190;BME280;22232;50.914;13.858;2023-01-26T01:03:49;98416.50;;;-0.31;100.00
36190;BME280;22232;50.914;13.858;2023-01-26T01:06:18;98405.88;;;-0.30;100.00
36190;BME280;22232;50.914;13.858;2023-01-26T01:08:46;98413.06;;;-0.32;100.00
36190;BME280;22232;50.914;13.858;2023-01-26T01:11:13;98412.38;;;-0.34;100.00
36190;BME280;22232;50.914;13.858;2023-01-26T01:13:41;98401.88;;;-0.34;100.00
36190;BME280;22232;50.914;13.858;2023-01-26T01:16:11;98405.94;;;-0.39;100.00
36190;BME280;22232;50.914;13.858;2023-01-26T01:18:43;98399.78;;;-0.48;100.00
36190;BME280;22232;50.914;13.858;2023-01-26T01:21:15;98400.72;;;-0.49;100.00
36190;BME280;22232;50.914;13.858;2023-01-26T01:23:43;98401.00;;;-0.42;100.00
36190;BME280;22232;50.914;13.858;2023-01-26T01:26:12;98405.38;;;-0.43;100.00
36190;BME280;22232;50.914;13.858;2023-01-26T01:28:41;98401.13;;;-0.44;100.00
36190;BME280;22232;50.914;13.858;2023-01-26T01:31:13;98395.34;;;-0.48;100.00
36190;BME280;22232;50.914;13.858;2023-01-26T01:33:42;98388.03;;;-0.44;100.00
36190;BME280;22232;50.914;13.858;2023-01-26T01:36:12;98387.44;;;-0.38;100.00
36190;BME280;22232;50.914;13.858;2023-01-26T01:38:42;98381.50;;;-0.40;100.00
36190;BME280;22232;50.914;13.858;2023-01-26T01:41:11;98382.66;;;-0.42;100.00
36190;BME280;22232;50.914;13.858;2023-01-26T01:43:39;98384.81;;;-0.38;100.00
36190;BME280;22232;50.914;13.858;2023-01-26T01:46:28;98381.66;;;-0.41;100.00
36190;BME280;22232;50.914;13.858;2023-01-26T01:51:37;98378.16;;;-0.32;100.00
36190;BME280;22232;50.914;13.858;2023-01-26T01:54:10;98375.38;;;-0.31;100.00
36190;BME280;22232;50.914;13.858;2023-01-26T01:56:42;98364.09;;;-0.31;100.00
36190;BME280;22232;50.914;13.858;2023-01-26T01:59:13;98362.16;;;-0.29;100.00
36190;BME280;22232;50.914;13.858;2023-01-26T02:01:41;98356.75;;;-0.28;100.00
36190;BME280;22232;50.914;13.858;2023-01-26T02:04:09;98362.28;;;-0.31;100.00
36190;BME280;22232;50.914;13.858;2023-01-26T02:06:45;98358.19;;;-0.33;100.00
36190;BME280;22232;50.914;13.858;2023-01-26T02:09:15;98353.06;;;-0.35;100.00
36190;BME280;22232;50.914;13.858;2023-01-26T02:12:05;98354.34;;;-0.39;100.00
36190;BME280;22232;50.914;13.858;2023-01-26T02:14:36;98346.63;;;-0.40;100.00
36190;BME280;22232;50.914;13.858;2023-01-26T02:17:05;98343.03;;;-0.39;100.00
36190;BME280;22232;50.914;13.858;2023-01-26T02:25:30;98330.00;;;-0.31;100.00
36190;BME280;22232;50.914;13.858;2023-01-26T02:28:00;98318.56;;;-0.30;100.00
36190;BME280;22232;50.914;13.858;2023-01-26T02:30:28;98312.47;;;-0.31;100.00
36190;BME280;22232;50.914;13.858;2023-01-26T02:32:57;98312.19;;;-0.28;100.00
36190;BME280;22232;50.914;13.858;2023-01-26T02:35:24;98309.56;;;-0.28;100.00
36190;BME280;22232;50.914;13.858;2023-01-26T02:37:52;98296.44;;;-0.28;100.00
36190;BME280;22232;50.914;13.858;2023-01-26T02:40:36;98298.63;;;-0.23;100.00
36190;BME280;22232;50.914;13.858;2023-01-26T02:43:05;98295.19;;;-0.24;100.00
36190;BME280;22232;50.914;13.858;2023-01-26T02:45:33;98293.09;;;-0.20;100.00
36190;BME280;22232;50.914;13.858;2023-01-26T02:48:01;98293.41;;;-0.23;100.00
36190;BME280;22232;50.914;13.858;2023-01-26T02:50:33;98292.88;;;-0.27;100.00
36190;BME280;22232;50.914;13.858;2023-01-26T02:53:01;98288.28;;;-0.25;100.00
36190;BME280;22232;50.914;13.858;2023-01-26T02:55:30;98286.25;;;-0.31;100.00
36190;BME280;22232;50.914;13.858;2023-01-26T02:58:02;98280.06;;;-0.30;100.00
36190;BME280;22232;50.914;13.858;2023-01-26T03:00:34;98278.41;;;-0.31;100.00
36190;BME280;22232;50.914;13.858;2023-01-26T03:03:15;98277.88;;;-0.34;100.00
36190;BME280;22232;50.914;13.858;2023-01-26T03:05:45;98283.28;;;-0.36;100.00
36190;BME280;22232;50.914;13.858;2023-01-26T03:08:12;98280.81;;;-0.37;100.00
36190;BME280;22232;50.914;13.858;2023-01-26T03:10:40;98281.78;;;-0.38;100.00
36190;BME280;22232;50.914;13.858;2023-01-26T03:13:08;98283.44;;;-0.37;100.00
36190;BME280;22232;50.914;13.858;2023-01-26T03:15:36;98288.66;;;-0.37;100.00
36190;BME280;22232;50.914;13.858;2023-01-26T03:18:14;98283.44;;;-0.37;100.00
36190;BME280;22232;50.914;13.858;2023-01-26T03:21:14;98279.31;;;-0.40;100.00
36190;BME280;22232;50.914;13.858;2023-01-26T03:24:01;98275.88;;;-0.40;100.00
36190;BME280;22232;50.914;13.858;2023-01-26T03:26:47;98269.81;;;-0.41;100.00
36190;BME280;22232;50.914;13.858;2023-01-26T03:29:33;98264.94;;;-0.54;100.00
36190;BME280;22232;50.914;13.858;2023-01-26T03:32:02;98267.78;;;-0.47;100.00
36190;BME280;22232;50.914;13.858;2023-01-26T03:34:30;98274.97;;;-0.49;100.00
36190;BME280;22232;50.914;13.858;2023-01-26T03:36:58;98266.28;;;-0.50;100.00
36190;BME280;22232;50.914;13.858;2023-01-26T03:39:32;98273.72;;;-0.45;100.00
36190;BME280;22232;50.914;13.858;2023-01-26T03:42:19;98263.88;;;-0.43;100.00
36190;BME280;22232;50.914;13.858;2023-01-26T03:45:06;98258.34;;;-0.40;100.00
36190;BME280;22232;50.914;13.858;2023-01-26T03:47:52;98254.59;;;-0.37;100.00
36190;BME280;22232;50.914;13.858;2023-01-26T03:50:38;98249.34;;;-0.37;100.00
36190;BME280;22232;50.914;13.858;2023-01-26T03:53:24;98253.47;;;-0.35;100.00
36190;BME280;22232;50.914;13.858;2023-01-26T03:56:11;98246.59;;;-0.36;100.00
36190;BME280;22232;50.914;13.858;2023-01-26T03:58:49;98249.75;;;-0.32;100.00
36190;BME280;22232;50.914;13.858;2023-01-26T04:01:23;98251.91;;;-0.28;100.00
36190;BME280;22232;50.914;13.858;2023-01-26T04:03:57;98249.56;;;-0.31;100.00
36190;BME280;22232;50.914;13.858;2023-01-26T04:06:47;98241.56;;;-0.29;100.00
36190;BME280;22232;50.914;13.858;2023-01-26T04:09:36;98247.19;;;-0.24;100.00
36190;BME280;22232;50.914;13.858;2023-01-26T04:12:06;98238.34;;;-0.23;100.00
36190;BME280;22232;50.914;13.858;2023-01-26T04:14:52;98245.53;;;-0.25;100.00
36190;BME280;22232;50.914;13.858;2023-01-26T04:17:38;98235.66;;;-0.31;100.00
36190;BME280;22232;50.914;13.858;2023-01-26T04:20:25;98233.19;;;-0.33;100.00
36190;BME280;22232;50.914;13.858;2023-01-26T04:23:19;98237.25;;;-0.38;100.00
36190;BME280;22232;50.914;13.858;2023-01-26T04:25:49;98237.06;;;-0.37;100.00
36190;BME280;22232;50.914;13.858;2023-01-26T04:28:17;98230.88;;;-0.36;100.00
36190;BME280;22232;50.914;13.858;2023-01-26T04:30:46;98230.56;;;-0.33;100.00
36190;BME280;22232;50.914;13.858;2023-01-26T04:33:14;98233.19;;;-0.33;100.00
36190;BME280;22232;50.914;13.858;2023-01-26T04:35:41;98228.91;;;-0.34;100.00
36190;BME280;22232;50.914;13.858;2023-01-26T04:38:09;98223.53;;;-0.32;100.00
36190;BME280;22232;50.914;13.858;2023-01-26T04:40:40;98224.34;;;-0.32;100.00
36190;BME280;22232;50.914;13.858;2023-01-26T04:43:08;98222.41;;;-0.30;100.00
36190;BME280;22232;50.914;13.858;2023-01-26T04:45:36;98221.13;;;-0.26;100.00
36190;BME280;22232;50.914;13.858;2023-01-26T04:48:04;98225.03;;;-0.30;100.00
36190;BME280;22232;50.914;13.858;2023-01-26T04:50:31;98214.03;;;-0.33;100.00
36190;BME280;22232;50.914;13.858;2023-01-26T04:52:59;98207.44;;;-0.37;100.00
36190;BME280;22232;50.914;13.858;2023-01-26T04:55:27;98215.28;;;-0.37;100.00
36190;BME280;22232;50.914;13.858;2023-01-26T04:57:55;98215.16;;;-0.36;100.00
36190;BME280;22232;50.914;13.858;2023-01-26T05:00:24;98209.75;;;-0.34;100.00
36190;BME280;22232;50.914;13.858;2023-01-26T05:02:52;98213.19;;;-0.34;100.00
36190;BME280;22232;50.914;13.858;2023-01-26T05:05:20;98212.38;;;-0.34;100.00
36190;BME280;22232;50.914;13.858;2023-01-26T05:07:48;98207.81;;;-0.32;100.00
36190;BME280;22232;50.914;13.858;2023-01-26T05:10:17;98211.09;;;-0.30;100.00
36190;BME280;22232;50.914;13.858;2023-01-26T05:12:57;98215.50;;;-0.31;100.00
36190;BME280;22232;50.914;13.858;2023-01-26T05:15:33;98206.38;;;-0.27;100.00
36190;BME280;22232;50.914;13.858;2023-01-26T05:18:12;98212.75;;;-0.29;100.00
36190;BME280;22232;50.914;13.858;2023-01-26T05:20:51;98210.25;;;-0.31;100.00
36190;BME280;22232;50.914;13.858;2023-01-26T05:23:27;98215.38;;;-0.29;100.00
36190;BME280;22232;50.914;13.858;2023-01-26T05:26:03;98219.09;;;-0.32;100.00
36190;BME280;22232;50.914;13.858;2023-01-26T05:28:41;98220.59;;;-0.29;100.00
36190;BME280;22232;50.914;13.858;2023-01-26T05:31:09;98224.03;;;-0.29;100.00
36190;BME280;22232;50.914;13.858;2023-01-26T05:33:39;98226.66;;;-0.29;100.00
36190;BME280;22232;50.914;13.858;2023-01-26T05:36:09;98232.59;;;-0.27;100.00
36190;BME280;22232;50.914;13.858;2023-01-26T05:38:37;98236.84;;;-0.26;100.00
36190;BME280;22232;50.914;13.858;2023-01-26T05:41:05;98232.38;;;-0.33;100.00
36190;BME280;22232;50.914;13.858;2023-01-26T05:43:46;98232.38;;;-0.33;100.00
36190;BME280;22232;50.914;13.858;2023-01-26T05:46:31;98232.38;;;-0.33;100.00
36190;BME280;22232;50.914;13.858;2023-01-26T05:48:59;98226.16;;;-0.32;100.00
36190;BME280;22232;50.914;13.858;2023-01-26T05:51:28;98231.41;;;-0.32;100.00
36190;BME280;22232;50.914;13.858;2023-01-26T05:53:56;98230.56;;;-0.33;100.00
36190;BME280;22232;50.914;13.858;2023-01-26T05:56:24;98221.91;;;-0.33;100.00
36190;BME280;22232;50.914;13.858;2023-01-26T05:58:57;98223.00;;;-0.36;100.00
36190;BME280;22232;50.914;13.858;2023-01-26T06:01:25;98232.69;;;-0.36;100.00
36190;BME280;22232;50.914;13.858;2023-01-26T06:03:58;98229.91;;;-0.35;100.00
36190;BME280;22232;50.914;13.858;2023-01-26T06:06:30;98234.44;;;-0.37;100.00
36190;BME280;22232;50.914;13.858;2023-01-26T06:09:30;98222.13;;;-0.44;100.00
36190;BME280;22232;50.914;13.858;2023-01-26T06:12:00;98228.19;;;-0.44;100.00
36190;BME280;22232;50.914;13.858;2023-01-26T06:14:46;98224.94;;;-0.38;100.00
36190;BME280;22232;50.914;13.858;2023-01-26T06:17:16;98221.03;;;-0.34;100.00
36190;BME280;22232;50.914;13.858;2023-01-26T06:19:45;98224.66;;;-0.35;100.00
36190;BME280;22232;50.914;13.858;2023-01-26T06:22:13;98223.84;;;-0.35;100.00
36190;BME280;22232;50.914;13.858;2023-01-26T06:24:45;98221.03;;;-0.34;100.00
36190;BME280;22232;50.914;13.858;2023-01-26T06:27:16;98218.59;;;-0.35;100.00
36190;BME280;22232;50.914;13.858;2023-01-26T06:29:47;98223.31;;;-0.39;100.00
36190;BME280;22232;50.914;13.858;2023-01-26T06:32:14;98226.53;;;-0.45;100.00
36190;BME280;22232;50.914;13.858;2023-01-26T06:34:44;98223.91;;;-0.45;100.00
36190;BME280;22232;50.914;13.858;2023-01-26T06:37:12;98233.28;;;-0.42;100.00
36190;BME280;22232;50.914;13.858;2023-01-26T06:39:40;98226.59;;;-0.37;100.00
36190;BME280;22232;50.914;13.858;2023-01-26T06:42:08;98236.41;;;-0.39;100.00
36190;BME280;22232;50.914;13.858;2023-01-26T06:44:37;98232.59;;;-0.44;100.00
36190;BME280;22232;50.914;13.858;2023-01-26T06:47:05;98234.41;;;-0.45;100.00
36190;BME280;22232;50.914;13.858;2023-01-26T06:49:34;98229.97;;;-0.44;100.00
36190;BME280;22232;50.914;13.858;2023-01-26T06:55:02;98222.94;;;-0.44;100.00
36190;BME280;22232;50.914;13.858;2023-01-26T06:57:45;98229.47;;;-0.48;100.00
36190;BME280;22232;50.914;13.858;2023-01-26T07:00:31;98221.22;;;-0.53;100.00
36190;BME280;22232;50.914;13.858;2023-01-26T07:03:15;98225.47;;;-0.52;100.00
36190;BME280;22232;50.914;13.858;2023-01-26T07:05:42;98218.28;;;-0.50;100.00
36190;BME280;22232;50.914;13.858;2023-01-26T07:08:10;98223.25;;;-0.47;100.00
36190;BME280;22232;50.914;13.858;2023-01-26T07:10:37;98227.34;;;-0.44;100.00
36190;BME280;22232;50.914;13.858;2023-01-26T07:13:05;98220.00;;;-0.41;100.00
36190;BME280;22232;50.914;13.858;2023-01-26T07:15:33;98216.09;;;-0.37;100.00
36190;BME280;22232;50.914;13.858;2023-01-26T07:18:01;98215.81;;;-0.34;100.00
36190;BME280;22232;50.914;13.858;2023-01-26T07:20:28;98216.66;;;-0.33;100.00
36190;BME280;22232;50.914;13.858;2023-01-26T07:22:58;98209.44;;;-0.31;100.00
36190;BME280;22232;50.914;13.858;2023-01-26T07:25:26;98215.81;;;-0.34;100.00
36190;BME280;22232;50.914;13.858;2023-01-26T07:27:56;98215.81;;;-0.34;100.00
36190;BME280;22232;50.914;13.858;2023-01-26T07:30:24;98209.44;;;-0.31;100.00
36190;BME280;22232;50.914;13.858;2023-01-26T07:32:52;98208.63;;;-0.32;100.00
36190;BME280;22232;50.914;13.858;2023-01-26T07:35:20;98217.38;;;-0.23;100.00
36190;BME280;22232;50.914;13.858;2023-01-26T07:37:47;98214.88;;;-0.25;100.00
36190;BME280;22232;50.914;13.858;2023-01-26T07:40:15;98217.22;;;-0.21;100.00
36190;BME280;22232;50.914;13.858;2023-01-26T07:42:43;98218.88;;;-0.20;100.00
36190;BME280;22232;50.914;13.858;2023-01-26T07:45:17;98212.66;;;-0.19;100.00
36190;BME280;22232;50.914;13.858;2023-01-26T07:47:45;98219.69;;;-0.20;100.00
36190;BME280;22232;50.914;13.858;2023-01-26T07:50:13;98225.84;;;-0.29;100.00
36190;BME280;22232;50.914;13.858;2023-01-26T07:52:40;98225.69;;;-0.28;100.00
36190;BME280;22232;50.914;13.858;2023-01-26T07:55:09;98215.81;;;-0.34;100.00
36190;BME280;22232;50.914;13.858;2023-01-26T07:57:37;98213.19;;;-0.34;100.00
36190;BME280;22232;50.914;13.858;2023-01-26T08:00:05;98212.97;;;-0.40;100.00
36190;BME280;22232;50.914;13.858;2023-01-26T08:02:37;98224.75;;;-0.44;100.00
36190;BME280;22232;50.914;13.858;2023-01-26T08:05:05;98228.25;;;-0.36;100.00
36190;BME280;22232;50.914;13.858;2023-01-26T08:07:33;98226.84;;;-0.48;100.00
36190;BME280;22232;50.914;13.858;2023-01-26T08:10:00;98226.03;;;-0.66;100.00
36190;BME280;22232;50.914;13.858;2023-01-26T08:12:28;98214.94;;;-0.60;100.00
36190;BME280;22232;50.914;13.858;2023-01-26T08:14:55;98212.84;;;-0.57;100.00
36190;BME280;22232;50.914;13.858;2023-01-26T08:17:23;98215.91;;;-0.61;100.00
36190;BME280;22232;50.914;13.858;2023-01-26T08:19:51;98215.84;;;-0.70;100.00
36190;BME280;22232;50.914;13.858;2023-01-26T08:22:18;98222.28;;;-0.64;100.00
36190;BME280;22232;50.914;13.858;2023-01-26T08:24:46;98217.47;;;-0.68;100.00
36190;BME280;22232;50.914;13.858;2023-01-26T08:27:14;98218.50;;;-0.61;100.00
36190;BME280;22232;50.914;13.858;2023-01-26T08:29:43;98210.59;;;-0.70;100.00
36190;BME280;22232;50.914;13.858;2023-01-26T08:32:10;98215.84;;;-0.70;100.00
36190;BME280;22232;50.914;13.858;2023-01-26T08:34:38;98208.50;;;-0.66;100.00
36190;BME280;22232;50.914;13.858;2023-01-26T08:37:05;98207.59;;;-0.75;100.00
36190;BME280;22232;50.914;13.858;2023-01-26T08:39:33;98210.13;;;-0.83;100.00
36190;BME280;22232;50.914;13.858;2023-01-26T08:42:01;98204.38;;;-0.86;100.00
36190;BME280;22232;50.914;13.858;2023-01-26T08:44:28;98212.88;;;-1.02;100.00
36190;BME280;22232;50.914;13.858;2023-01-26T08:46:56;98213.19;;;-1.05;100.00
36190;BME280;22232;50.914;13.858;2023-01-26T08:49:23;98205.56;;;-0.99;100.00
36190;BME280;22232;50.914;13.858;2023-01-26T08:51:51;98213.50;;;-0.90;100.00
36190;BME280;22232;50.914;13.858;2023-01-26T08:54:19;98207.16;;;-0.88;100.00
36190;BME280;22232;50.914;13.858;2023-01-26T08:56:46;98211.31;;;-0.95;100.00
36190;BME280;22232;50.914;13.858;2023-01-26T08:59:13;98212.19;;;-1.04;100.00
36190;BME280;22232;50.914;13.858;2023-01-26T09:01:41;98214.22;;;-0.98;100.00
36190;BME280;22232;50.914;13.858;2023-01-26T09:04:09;98219.91;;;-1.03;100.00
36190;BME280;22232;50.914;13.858;2023-01-26T09:06:36;98220.28;;;-0.98;100.00
36190;BME280;22232;50.914;13.858;2023-01-26T09:09:03;98228.88;;;-1.05;100.00
36190;BME280;22232;50.914;13.858;2023-01-26T09:11:31;98228.44;;;-1.01;100.00
36190;BME280;22232;50.914;13.858;2023-01-26T09:13:59;98230.41;;;-0.85;100.00
36190;BME280;22232;50.914;13.858;2023-01-26T09:16:26;98232.75;;;-0.82;100.00
36190;BME280;22232;50.914;13.858;2023-01-26T09:18:54;98223.00;;;-0.72;100.00
36190;BME280;22232;50.914;13.858;2023-01-26T09:21:21;98230.66;;;-0.60;100.00
36190;BME280;22232;50.914;13.858;2023-01-26T09:23:51;98229.44;;;-0.66;100.00
36190;BME280;22232;50.914;13.858;2023-01-26T09:26:19;98232.75;;;-0.64;100.00
36190;BME280;22232;50.914;13.858;2023-01-26T09:28:51;98222.50;;;-0.57;100.00
36190;BME280;22232;50.914;13.858;2023-01-26T09:31:19;98230.66;;;-0.60;100.00
36190;BME280;22232;50.914;13.858;2023-01-26T09:33:48;98233.28;;;-0.60;100.00
36190;BME280;22232;50.914;13.858;2023-01-26T09:36:16;98241.88;;;-0.68;100.00
36190;BME280;22232;50.914;13.858;2023-01-26T09:38:44;98239.91;;;-0.84;100.00
36190;BME280;22232;50.914;13.858;2023-01-26T09:41:41;98246.66;;;-0.81;100.00
36190;BME280;22232;50.914;13.858;2023-01-26T09:44:21;98249.50;;;-0.75;100.00
36190;BME280;22232;50.914;13.858;2023-01-26T09:49:47;98233.03;;;-0.67;100.00
36190;BME280;22232;50.914;13.858;2023-01-26T09:52:34;98238.34;;;-0.59;100.00
36190;BME280;22232;50.914;13.858;2023-01-26T09:55:08;98241.19;;;-0.52;100.00
36190;BME280;22232;50.914;13.858;2023-01-26T09:57:47;98241.88;;;-0.50;100.00
36190;BME280;22232;50.914;13.858;2023-01-26T10:00:22;98233.94;;;-0.58;100.00
36190;BME280;22232;50.914;13.858;2023-01-26T10:05:43;98240.84;;;-0.57;100.00
36190;BME280;22232;50.914;13.858;2023-01-26T10:08:34;98239.34;;;-0.42;100.00
36190;BME280;22232;50.914;13.858;2023-01-26T10:11:06;98235.44;;;-0.38;100.00
36190;BME280;22232;50.914;13.858;2023-01-26T10:13:49;98237.47;;;-0.50;100.00
36190;BME280;22232;50.914;13.858;2023-01-26T10:16:18;98224.88;;;-0.46;100.00
36190;BME280;22232;50.914;13.858;2023-01-26T10:19:35;98219.72;;;-0.56;100.00
36190;BME280;22232;50.914;13.858;2023-01-26T10:22:05;98222.81;;;-0.60;100.00
36190;BME280;22232;50.914;13.858;2023-01-26T10:24:35;98218.91;;;-0.56;100.00
36190;BME280;22232;50.914;13.858;2023-01-26T10:27:08;98223.25;;;-0.47;100.00
36190;BME280;22232;50.914;13.858;2023-01-26T10:29:37;98223.25;;;-0.47;100.00
36190;BME280;22232;50.914;13.858;2023-01-26T10:32:08;98217.63;;;-0.52;100.00
36190;BME280;22232;50.914;13.858;2023-01-26T10:34:37;98226.31;;;-0.70;100.00
36190;BME280;22232;50.914;13.858;2023-01-26T10:37:20;98225.69;;;-0.81;100.00
36190;BME280;22232;50.914;13.858;2023-01-26T10:40:02;98221.81;;;-0.59;100.00
36190;BME280;22232;50.914;13.858;2023-01-26T10:42:32;98215.97;;;-0.53;100.00
36190;BME280;22232;50.914;13.858;2023-01-26T10:45:04;98207.22;;;-0.44;100.00
36190;BME280;22232;50.914;13.858;2023-01-26T10:47:32;98208.84;;;-0.43;100.00
36190;BME280;22232;50.914;13.858;2023-01-26T10:50:20;98213.13;;;-0.42;100.00
36190;BME280;22232;50.914;13.858;2023-01-26T10:56:56;98202.44;;;-0.49;100.00
36190;BME280;22232;50.914;13.858;2023-01-26T11:04:38;98206.97;;;-0.33;100.00
36190;BME280;22232;50.914;13.858;2023-01-26T11:07:27;98200.97;;;-0.25;100.00
36190;BME280;22232;50.914;13.858;2023-01-26T11:09:54;98202.03;;;-0.18;100.00
36190;BME280;22232;50.914;13.858;2023-01-26T11:12:24;98183.44;;;-0.25;100.00
36190;BME280;22232;50.914;13.858;2023-01-26T11:15:02;98189.88;;;-0.19;100.00
36190;BME280;22232;50.914;13.858;2023-01-26T11:17:37;98193.09;;;-0.25;100.00
36190;BME280;22232;50.914;13.858;2023-01-26T11:26:19;98187.56;;;-0.22;100.00
36190;BME280;22232;50.914;13.858;2023-01-26T11:42:54;98175.22;;;-0.04;100.00
36190;BME280;22232;50.914;13.858;2023-01-26T11:46:11;98171.16;;;0.02;100.00
36190;BME280;22232;50.914;13.858;2023-01-26T11:48:31;98157.81;;;0.13;100.00
36190;BME280;22232;50.914;13.858;2023-01-26T11:51:12;98158.69;;;0.30;100.00
36190;BME280;22232;50.914;13.858;2023-01-26T11:54:17;98163.84;;;0.40;100.00
36190;BME280;22232;50.914;13.858;2023-01-26T11:57:06;98161.28;;;0.22;100.00
36190;BME280;22232;50.914;13.858;2023-01-26T11:59:44;98149.06;;;0.05;100.00
36190;BME280;22232;50.914;13.858;2023-01-26T12:02:29;98141.56;;;-0.16;100.00
36190;BME280;22232;50.914;13.858;2023-01-26T12:05:01;98144.38;;;-0.36;100.00
36190;BME280;22232;50.914;13.858;2023-01-26T12:07:49;98148.38;;;-0.50;100.00
36190;BME280;22232;50.914;13.858;2023-01-26T12:13:41;98135.28;;;-0.67;100.00
36190;BME280;22232;50.914;13.858;2023-01-26T12:16:17;98137.41;;;-0.71;100.00
36190;BME280;22232;50.914;13.858;2023-01-26T12:18:53;98133.56;;;-0.59;100.00
36190;BME280;22232;50.914;13.858;2023-01-26T12:21:40;98132.06;;;-0.61;100.00
36190;BME280;22232;50.914;13.858;2023-01-26T12:24:15;98130.44;;;-0.62;100.00
36190;BME280;22232;50.914;13.858;2023-01-26T12:27:11;98126.47;;;-0.66;100.00
36190;BME280;22232;50.914;13.858;2023-01-26T12:32:15;98126.22;;;-0.55;100.00
36190;BME280;22232;50.914;13.858;2023-01-26T12:34:43;98118.44;;;-0.47;100.00
36190;BME280;22232;50.914;13.858;2023-01-26T12:43:23;98110.91;;;-0.68;100.00
36190;BME280;22232;50.914;13.858;2023-01-26T12:45:56;98111.78;;;-0.59;100.00
36190;BME280;22232;50.914;13.858;2023-01-26T12:49:12;98110.09;;;-0.68;100.00
36190;BME280;22232;50.914;13.858;2023-01-26T12:51:41;98110.09;;;-0.68;100.00
36190;BME280;22232;50.914;13.858;2023-01-26T12:54:21;98103.34;;;-0.71;100.00
36190;BME280;22232;50.914;13.858;2023-01-26T12:56:53;98116.09;;;-0.94;100.00
36190;BME280;22232;50.914;13.858;2023-01-26T13:02:29;98109.97;;;-0.85;100.00
36190;BME280;22232;50.914;13.858;2023-01-26T13:04:59;98097.16;;;-0.88;100.00
36190;BME280;22232;50.914;13.858;2023-01-26T13:07:39;98095.81;;;-0.92;100.00
36190;BME280;22232;50.914;13.858;2023-01-26T13:12:51;98095.38;;;-0.87;100.00
36190;BME280;22232;50.914;13.858;2023-01-26T13:15:25;98088.03;;;-0.84;100.00
36190;BME280;22232;50.914;13.858;2023-01-26T13:17:54;98073.25;;;-0.67;100.00
36190;BME280;22232;50.914;13.858;2023-01-26T13:26:18;98070.81;;;-0.42;100.00
36190;BME280;22232;50.914;13.858;2023-01-26T13:28:47;98071.88;;;-0.53;100.00
36190;BME280;22232;50.914;13.858;2023-01-26T13:31:30;98078.91;;;-0.54;100.00
36190;BME280;22232;50.914;13.858;2023-01-26T13:34:06;98075.41;;;-0.62;100.00
36190;BME280;22232;50.914;13.858;2023-01-26T13:36:37;98087.13;;;-0.93;100.00
36190;BME280;22232;50.914;13.858;2023-01-26T13:39:16;98085.41;;;-1.02;100.00
36190;BME280;22232;50.914;13.858;2023-01-26T13:41:46;98087.97;;;-1.10;100.00
36190;BME280;22232;50.914;13.858;2023-01-26T13:44:19;98084.53;;;-1.10;100.00
36190;BME280;22232;50.914;13.858;2023-01-26T13:47:00;98085.19;;;-1.26;100.00
36190;BME280;22232;50.914;13.858;2023-01-26T13:52:22;98085.28;;;-1.18;100.00
36190;BME280;22232;50.914;13.858;2023-01-26T13:54:53;98091.03;;;-1.14;100.00
36190;BME280;22232;50.914;13.858;2023-01-26T13:57:25;98090.00;;;-1.22;100.00
36190;BME280;22232;50.914;13.858;2023-01-26T13:59:58;98097.00;;;-1.22;100.00
36190;BME280;22232;50.914;13.858;2023-01-26T14:02:29;98095.38;;;-1.23;100.00
36190;BME280;22232;50.914;13.858;2023-01-26T14:04:58;98097.91;;;-1.13;100.00
36190;BME280;22232;50.914;13.858;2023-01-26T14:07:30;98102.84;;;-1.10;100.00
36190;BME280;22232;50.914;13.858;2023-01-26T14:09:59;98085.06;;;-1.25;100.00
36190;BME280;22232;50.914;13.858;2023-01-26T14:12:32;98093.44;;;-1.21;100.00
36190;BME280;22232;50.914;13.858;2023-01-26T14:15:04;98095.16;;;-1.12;100.00
36190;BME280;22232;50.914;13.858;2023-01-26T14:17:45;98089.75;;;-1.10;100.00
36190;BME280;22232;50.914;13.858;2023-01-26T14:20:35;98091.63;;;-1.03;100.00
36190;BME280;22232;50.914;13.858;2023-01-26T14:25:34;98096.19;;;-1.05;100.00